createdAt,value
2018-11-14T00:01:13.305Z,92.70
2018-11-14T00:03:41.803Z,92.50
2018-11-14T00:06:10.166Z,92.10
2018-11-14T00:08:38.604Z,92.10
2018-11-14T00:11:07.068Z,92.00
2018-11-14T00:13:36.744Z,91.80
2018-11-14T00:16:05.514Z,92.10
2018-11-14T00:18:33.908Z,92.00
2018-11-14T00:21:02.294Z,92.40
2018-11-14T00:23:30.764Z,92.50
2018-11-14T00:25:59.244Z,92.30
2018-11-14T00:28:27.636Z,92.40
2018-11-14T00:30:55.993Z,92.60
2018-11-14T00:33:24.472Z,93.10
2018-11-14T00:35:52.918Z,92.60
2018-11-14T00:38:21.385Z,92.90
2018-11-14T00:40:49.721Z,92.60
2018-11-14T00:43:18.088Z,92.20
2018-11-14T00:45:46.508Z,92.40
2018-11-14T00:48:14.892Z,92.20
2018-11-14T00:50:43.345Z,92.50
2018-11-14T00:53:11.810Z,92.50
2018-11-14T00:55:40.269Z,93.00
2018-11-14T00:58:08.774Z,92.50
2018-11-14T01:00:37.213Z,92.20
2018-11-14T01:03:05.795Z,92.40
2018-11-14T01:05:34.177Z,92.60
2018-11-14T01:08:03.024Z,93.10
2018-11-14T01:10:31.509Z,92.90
2018-11-14T01:12:59.990Z,92.80
2018-11-14T01:15:28.547Z,92.50
2018-11-14T01:17:56.963Z,92.30
2018-11-14T01:20:25.576Z,92.50
2018-11-14T01:22:54.070Z,92.80
2018-11-14T01:25:22.487Z,92.50
2018-11-14T01:27:51.244Z,92.30
2018-11-14T01:30:22.814Z,92.20
2018-11-14T01:32:51.693Z,92.00
2018-11-14T01:35:20.391Z,91.90
2018-11-14T01:37:49.175Z,92.30
2018-11-14T01:40:20.373Z,92.20
2018-11-14T01:42:50.392Z,92.40
2018-11-14T01:45:18.873Z,92.80
2018-11-14T01:47:47.444Z,92.20
2018-11-14T01:50:15.957Z,91.90
2018-11-14T01:52:44.401Z,91.90
2018-11-14T01:55:14.827Z,91.90
2018-11-14T01:57:43.316Z,92.10
2018-11-14T02:00:13.552Z,92.30
2018-11-14T02:02:42.133Z,92.00
2018-11-14T02:05:11.120Z,92.00
2018-11-14T02:07:39.666Z,92.00
2018-11-14T02:10:11.714Z,91.70
2018-11-14T02:12:40.598Z,91.60
2018-11-14T02:15:12.623Z,92.00
2018-11-14T02:17:41.434Z,91.80
2018-11-14T02:20:10.410Z,93.20
2018-11-14T02:22:38.786Z,93.30
2018-11-14T02:25:08.128Z,92.50
2018-11-14T02:27:36.547Z,92.60
2018-11-14T02:30:07.007Z,92.70
2018-11-14T02:32:35.383Z,92.50
2018-11-14T02:35:03.881Z,93.00
2018-11-14T02:37:32.351Z,93.10
2018-11-14T02:40:01.009Z,93.40
2018-11-14T02:42:29.437Z,93.10
2018-11-14T02:44:57.801Z,93.10
2018-11-14T02:47:26.261Z,93.40
2018-11-14T02:49:54.704Z,93.10
2018-11-14T02:52:23.133Z,92.40
2018-11-14T02:54:51.561Z,92.30
2018-11-14T02:57:19.997Z,92.10
2018-11-14T02:59:48.409Z,92.70
2018-11-14T03:02:16.852Z,93.10
2018-11-14T03:04:45.274Z,93.70
2018-11-14T03:07:13.722Z,93.60
2018-11-14T03:09:42.075Z,93.90
2018-11-14T03:12:10.625Z,94.20
2018-11-14T03:14:39.411Z,94.60
2018-11-14T03:17:07.854Z,94.20
2018-11-14T03:19:36.285Z,93.80
2018-11-14T03:22:04.847Z,94.50
2018-11-14T03:24:33.508Z,94.50
2018-11-14T03:27:02.004Z,93.90
2018-11-14T03:29:30.367Z,93.10
2018-11-14T03:31:58.818Z,92.60
2018-11-14T03:34:27.237Z,92.70
2018-11-14T03:36:55.658Z,92.60
2018-11-14T03:39:24.157Z,92.20
2018-11-14T03:41:52.559Z,92.30
2018-11-14T03:44:21.054Z,92.60
2018-11-14T03:46:49.478Z,92.60
2018-11-14T03:49:18.021Z,92.40
2018-11-14T03:51:46.475Z,92.60
2018-11-14T03:54:14.961Z,92.70
2018-11-14T03:56:43.419Z,92.60
2018-11-14T03:59:11.894Z,92.40
2018-11-14T04:01:40.383Z,92.40
2018-11-14T04:04:08.837Z,92.60
2018-11-14T04:06:37.322Z,93.30
2018-11-14T04:09:08.509Z,93.50
2018-11-14T04:11:36.937Z,93.00
2018-11-14T04:14:05.710Z,93.00
2018-11-14T04:16:34.148Z,92.90
2018-11-14T04:19:02.621Z,92.70
2018-11-14T04:21:31.104Z,93.00
2018-11-14T04:23:59.520Z,92.50
2018-11-14T04:26:27.900Z,92.50
2018-11-14T04:28:56.370Z,92.40
2018-11-14T04:31:24.763Z,92.80
2018-11-14T04:33:53.208Z,92.40
2018-11-14T04:36:21.627Z,92.10
2018-11-14T04:38:49.984Z,92.40
2018-11-14T04:41:18.447Z,92.10
2018-11-14T04:43:46.800Z,92.20
2018-11-14T04:46:15.179Z,92.60
2018-11-14T04:48:43.584Z,92.40
2018-11-14T04:51:12.064Z,92.80
2018-11-14T04:53:40.521Z,92.50
2018-11-14T04:56:08.906Z,92.90
2018-11-14T04:58:37.349Z,92.80
2018-11-14T05:01:06.209Z,92.50
2018-11-14T05:03:34.631Z,92.50
2018-11-14T05:06:03.077Z,93.20
2018-11-14T05:08:31.450Z,93.00
2018-11-14T05:10:59.850Z,92.60
2018-11-14T05:13:28.300Z,92.80
2018-11-14T05:15:56.756Z,92.70
2018-11-14T05:18:25.205Z,92.40
2018-11-14T05:20:53.676Z,92.30
2018-11-14T05:23:22.060Z,92.20
2018-11-14T05:25:50.573Z,92.10
2018-11-14T05:28:18.997Z,91.70
2018-11-14T05:30:47.501Z,91.70
2018-11-14T05:33:15.883Z,91.80
2018-11-14T05:35:44.292Z,91.40
2018-11-14T05:38:12.717Z,91.30
2018-11-14T05:40:41.280Z,91.70
2018-11-14T05:43:09.746Z,91.50
2018-11-14T05:45:38.282Z,92.00
2018-11-14T05:48:06.851Z,91.80
2018-11-14T05:50:35.410Z,91.80
2018-11-14T05:53:04.229Z,91.80
2018-11-14T05:55:32.707Z,91.80
2018-11-14T05:58:01.305Z,91.80
2018-11-14T06:00:31.903Z,92.20
2018-11-14T06:03:02.165Z,92.50
2018-11-14T06:05:30.611Z,92.10
2018-11-14T06:07:59.077Z,92.20
2018-11-14T06:10:27.831Z,92.30
2018-11-14T06:12:56.319Z,92.50
2018-11-14T06:15:24.893Z,92.80
2018-11-14T06:17:54.412Z,92.40
2018-11-14T06:20:23.309Z,92.40
2018-11-14T06:22:52.576Z,92.30
2018-11-14T06:25:40.977Z,92.60
2018-11-14T06:28:11.203Z,93.10
2018-11-14T06:30:41.059Z,93.10
2018-11-14T06:33:10.528Z,93.50
2018-11-14T06:35:39.052Z,93.00
2018-11-14T06:38:07.577Z,92.80
2018-11-14T06:40:36.029Z,93.30
2018-11-14T06:43:04.573Z,92.80
2018-11-14T06:45:33.612Z,93.20
2018-11-14T06:48:03.082Z,92.70
2018-11-14T06:50:31.491Z,92.90
2018-11-14T06:53:02.945Z,92.50
2018-11-14T06:55:31.444Z,92.70
2018-11-14T06:58:00.029Z,92.70
2018-11-14T07:00:35.948Z,92.80
2018-11-14T07:03:06.132Z,92.60
2018-11-14T07:05:34.970Z,93.00
2018-11-14T07:08:03.499Z,93.10
2018-11-14T07:10:33.669Z,93.70
2018-11-14T07:13:12.381Z,93.80
2018-11-14T07:15:41.858Z,94.10
2018-11-14T07:18:11.273Z,94.20
2018-11-14T07:20:41.147Z,94.50
2018-11-14T07:23:09.639Z,94.30
2018-11-14T07:25:38.111Z,94.60
2018-11-14T07:28:06.784Z,94.60
2018-11-14T07:30:35.958Z,95.00
2018-11-14T07:33:06.373Z,95.20
2018-11-14T07:35:34.939Z,95.80
2018-11-14T07:38:37.555Z,96.10
2018-11-14T07:41:07.594Z,96.30
2018-11-14T07:43:37.352Z,96.30
2018-11-14T07:46:06.699Z,96.20
2018-11-14T07:48:35.808Z,96.30
2018-11-14T07:51:04.401Z,96.30
2018-11-14T07:53:33.421Z,96.10
2018-11-14T07:56:01.979Z,96.10
2018-11-14T07:58:31.163Z,96.10
2018-11-14T08:01:00.013Z,95.80
2018-11-14T08:03:28.414Z,95.80
2018-11-14T08:05:56.951Z,95.50
2018-11-14T08:08:25.566Z,95.30
2018-11-14T08:10:54.127Z,95.20
2018-11-14T08:13:24.003Z,95.20
2018-11-14T08:15:54.495Z,95.20
2018-11-14T08:18:23.195Z,95.20
2018-11-14T08:20:51.709Z,95.00
2018-11-14T08:23:20.198Z,95.00
2018-11-14T08:25:48.691Z,94.90
2018-11-14T08:28:17.178Z,94.90
2018-11-14T08:30:45.924Z,94.50
2018-11-14T08:33:14.589Z,94.40
2018-11-14T08:35:43.092Z,94.40
2018-11-14T08:38:11.514Z,94.50
2018-11-14T08:40:40.042Z,94.30
2018-11-14T08:43:09.052Z,94.20
2018-11-14T08:45:37.529Z,94.20
2018-11-14T08:48:07.021Z,94.20
2018-11-14T08:50:35.509Z,94.00
2018-11-14T08:53:04.329Z,93.80
2018-11-14T08:55:32.758Z,93.60
2018-11-14T08:58:01.390Z,93.60
2018-11-14T09:00:31.791Z,93.50
2018-11-14T09:03:00.653Z,93.50
2018-11-14T09:05:35.755Z,93.20
2018-11-14T09:08:04.595Z,93.30
2018-11-14T09:10:33.128Z,93.30
2018-11-14T09:13:01.594Z,93.30
2018-11-14T09:15:30.198Z,93.30
2018-11-14T09:17:58.597Z,93.10
2018-11-14T09:20:28.268Z,93.10
2018-11-14T09:22:56.727Z,93.00
2018-11-14T09:25:27.828Z,92.90
2018-11-14T09:27:56.603Z,92.90
2018-11-14T09:30:26.104Z,92.80
2018-11-14T09:32:54.675Z,92.60
2018-11-14T09:35:24.533Z,92.50
2018-11-14T09:37:53.976Z,92.40
2018-11-14T09:40:24.945Z,92.10
2018-11-14T09:42:53.480Z,92.30
2018-11-14T09:45:28.543Z,92.20
2018-11-14T09:47:56.991Z,92.00
2018-11-14T09:50:33.217Z,92.00
2018-11-14T09:53:03.272Z,91.80
2018-11-14T09:55:31.926Z,91.70
2018-11-14T09:58:00.433Z,91.90
2018-11-14T10:00:30.496Z,91.80
2018-11-14T10:03:03.127Z,91.80
2018-11-14T10:05:31.732Z,91.50
2018-11-14T10:08:00.410Z,91.20
2018-11-14T10:10:29.022Z,91.00
2018-11-14T10:12:57.428Z,91.00
2018-11-14T10:15:26.040Z,90.90
2018-11-14T10:17:54.681Z,91.10
2018-11-14T10:20:24.238Z,90.80
2018-11-14T10:22:52.761Z,90.50
2018-11-14T10:25:21.683Z,90.40
2018-11-14T10:27:50.644Z,90.40
2018-11-14T10:30:20.662Z,90.40
2018-11-14T10:32:50.077Z,90.20
2018-11-14T10:35:18.566Z,90.40
2018-11-14T10:37:47.043Z,90.40
2018-11-14T10:40:19.340Z,90.30
2018-11-14T10:42:47.823Z,90.00
2018-11-14T10:45:19.243Z,90.00
2018-11-14T10:47:47.701Z,90.00
2018-11-14T10:50:19.234Z,90.00
2018-11-14T10:52:47.703Z,89.10
2018-11-14T10:55:16.682Z,89.30
2018-11-14T10:57:45.202Z,89.10
2018-11-14T11:00:21.835Z,89.60
2018-11-14T11:02:55.489Z,89.00
2018-11-14T11:07:33.999Z,89.20
2018-11-14T11:12:12.449Z,88.40
2018-11-14T11:14:46.150Z,88.30
2018-11-14T11:17:20.017Z,88.30
2018-11-14T11:19:48.450Z,88.00
2018-11-14T11:22:16.851Z,87.60
2018-11-14T11:24:45.362Z,88.00
2018-11-14T11:27:13.797Z,87.80
2018-11-14T11:29:42.163Z,87.80
2018-11-14T11:32:10.834Z,87.70
2018-11-14T11:34:39.301Z,87.40
2018-11-14T11:37:07.724Z,87.40
2018-11-14T11:39:36.571Z,87.60
2018-11-14T11:42:05.254Z,88.00
2018-11-14T11:44:33.800Z,87.50
2018-11-14T11:47:02.350Z,87.80
2018-11-14T11:49:30.854Z,87.30
2018-11-14T11:51:59.209Z,87.40
2018-11-14T11:54:27.610Z,87.40
2018-11-14T11:56:56.092Z,87.20
2018-11-14T11:59:24.570Z,86.80
2018-11-14T12:01:53.120Z,86.80
2018-11-14T12:04:21.509Z,86.30
2018-11-14T12:06:49.917Z,86.30
2018-11-14T12:09:18.279Z,86.20
2018-11-14T12:11:46.728Z,86.10
2018-11-14T12:14:15.193Z,86.90
2018-11-14T12:16:43.958Z,85.00
2018-11-14T12:19:12.464Z,84.60
2018-11-14T12:21:40.970Z,84.40
2018-11-14T12:24:09.397Z,84.90
2018-11-14T12:26:37.838Z,83.90
2018-11-14T12:29:06.663Z,84.10
2018-11-14T12:31:35.124Z,83.60
2018-11-14T12:34:03.536Z,83.80
2018-11-14T12:36:38.660Z,84.90
2018-11-14T12:39:09.004Z,84.70
2018-11-14T12:41:37.394Z,84.90
2018-11-14T12:44:06.204Z,85.00
2018-11-14T12:46:34.770Z,85.10
2018-11-14T12:49:03.207Z,85.30
2018-11-14T12:51:31.698Z,85.50
2018-11-14T12:54:00.152Z,85.30
2018-11-14T12:56:28.528Z,85.80
2018-11-14T12:58:56.986Z,85.60
2018-11-14T13:01:25.490Z,85.50
2018-11-14T13:03:53.943Z,85.30
2018-11-14T13:06:22.348Z,85.50
2018-11-14T13:08:50.860Z,85.40
2018-11-14T13:11:19.247Z,85.50
2018-11-14T13:13:48.658Z,86.70
2018-11-14T13:16:18.029Z,86.10
2018-11-14T13:18:46.495Z,86.40
2018-11-14T13:21:14.937Z,86.40
2018-11-14T13:23:43.523Z,86.70
2018-11-14T13:26:12.366Z,86.90
2018-11-14T13:28:40.849Z,87.40
2018-11-14T13:31:09.471Z,87.90
2018-11-14T13:33:37.904Z,88.10
2018-11-14T13:36:06.414Z,88.30
2018-11-14T13:38:34.850Z,88.60
2018-11-14T13:41:03.280Z,88.50
2018-11-14T13:43:31.664Z,88.90
2018-11-14T13:46:00.319Z,88.70
2018-11-14T13:48:28.833Z,89.10
2018-11-14T13:50:57.446Z,89.30
2018-11-14T13:53:25.949Z,89.10
2018-11-14T13:55:54.348Z,90.10
2018-11-14T13:58:22.751Z,90.00
2018-11-14T14:00:51.146Z,90.20
2018-11-14T14:03:19.507Z,90.20
2018-11-14T14:05:47.950Z,90.20
2018-11-14T14:08:16.403Z,90.40
2018-11-14T14:10:44.803Z,90.40
2018-11-14T14:13:13.301Z,90.50
2018-11-14T14:15:41.695Z,90.50
2018-11-14T14:18:10.088Z,90.60
2018-11-14T14:20:38.866Z,90.50
2018-11-14T14:23:07.331Z,90.60
2018-11-14T14:25:35.784Z,90.70
2018-11-14T14:28:04.614Z,90.90
2018-11-14T14:30:32.997Z,91.00
2018-11-14T14:33:01.442Z,90.90
2018-11-14T14:35:29.873Z,91.00
2018-11-14T14:37:58.369Z,90.90
2018-11-14T14:40:26.904Z,90.80
2018-11-14T14:42:55.363Z,90.70
2018-11-14T14:45:25.249Z,90.80
2018-11-14T14:47:54.122Z,91.00
2018-11-14T14:50:22.589Z,91.20
2018-11-14T14:52:50.992Z,91.10
2018-11-14T14:55:22.354Z,91.20
2018-11-14T14:57:50.820Z,91.10
2018-11-14T15:00:24.765Z,90.90
2018-11-14T15:02:53.212Z,91.10
2018-11-14T15:05:21.640Z,90.80
2018-11-14T15:07:50.038Z,90.80
2018-11-14T15:10:20.216Z,90.80
2018-11-14T15:12:49.055Z,90.90
2018-11-14T15:15:18.103Z,90.70
2018-11-14T15:17:46.671Z,90.50
2018-11-14T15:20:17.336Z,90.40
2018-11-14T15:22:45.866Z,90.40
2018-11-14T15:25:16.517Z,90.40
2018-11-14T15:27:45.362Z,90.40
2018-11-14T15:30:17.080Z,90.50
2018-11-14T15:32:45.640Z,91.00
2018-11-14T15:35:14.443Z,90.50
2018-11-14T15:37:42.970Z,90.40
2018-11-14T15:40:14.903Z,90.30
2018-11-14T15:42:43.383Z,90.60
2018-11-14T15:45:14.081Z,90.50
2018-11-14T15:47:42.782Z,90.50
2018-11-14T15:50:12.887Z,90.50
2018-11-14T15:52:42.004Z,90.40
2018-11-14T15:55:11.626Z,90.10
2018-11-14T15:57:40.077Z,90.30
2018-11-14T16:00:19.447Z,90.50
2018-11-14T16:02:47.862Z,90.60
2018-11-14T16:05:17.834Z,90.40
2018-11-14T16:07:47.785Z,90.30
2018-11-14T16:10:17.426Z,90.50
2018-11-14T16:12:46.270Z,90.50
2018-11-14T16:15:16.078Z,90.60
2018-11-14T16:17:44.512Z,90.90
2018-11-14T16:20:14.347Z,91.00
2018-11-14T16:22:42.799Z,90.90
2018-11-14T16:25:12.760Z,91.00
2018-11-14T16:27:42.622Z,91.20
2018-11-14T16:30:17.173Z,90.90
2018-11-14T16:32:46.804Z,91.20
2018-11-14T16:35:15.328Z,91.00
2018-11-14T16:37:44.153Z,91.40
2018-11-14T16:40:15.113Z,91.00
2018-11-14T16:42:43.486Z,91.00
2018-11-14T16:45:12.666Z,90.70
2018-11-14T16:47:41.163Z,90.60
2018-11-14T16:50:11.550Z,90.90
2018-11-14T16:52:40.093Z,90.90
2018-11-14T16:55:09.581Z,91.00
2018-11-14T16:57:39.058Z,90.60
2018-11-14T17:00:15.944Z,90.60
2018-11-14T17:02:44.442Z,90.80
2018-11-14T17:05:13.549Z,90.70
2018-11-14T17:07:42.028Z,90.70
2018-11-14T17:10:13.254Z,90.60
2018-11-14T17:12:42.073Z,90.60
2018-11-14T17:15:12.762Z,90.50
2018-11-14T17:17:41.228Z,90.70
2018-11-14T17:20:10.701Z,90.60
2018-11-14T17:22:39.462Z,90.70
2018-11-14T17:25:09.084Z,90.80
2018-11-14T17:27:37.576Z,90.90
2018-11-14T17:30:08.441Z,90.70
2018-11-14T17:32:38.590Z,90.40
2018-11-14T17:35:08.320Z,90.40
2018-11-14T17:37:37.393Z,90.40
2018-11-14T17:40:09.700Z,90.70
2018-11-14T17:42:38.771Z,90.50
2018-11-14T17:45:10.087Z,90.70
2018-11-14T17:47:38.596Z,91.00
2018-11-14T17:50:11.159Z,91.00
2018-11-14T17:52:39.859Z,90.50
2018-11-14T17:55:11.407Z,90.50
2018-11-14T17:57:40.096Z,90.40
2018-11-14T18:00:10.802Z,90.70
2018-11-14T18:02:40.238Z,91.00
2018-11-14T18:05:12.135Z,90.90
2018-11-14T18:07:41.707Z,91.20
2018-11-14T18:10:12.669Z,91.20
2018-11-14T18:12:41.445Z,90.70
2018-11-14T18:15:10.771Z,91.30
2018-11-14T18:17:39.947Z,91.40
2018-11-14T18:20:11.143Z,91.40
2018-11-14T18:22:40.248Z,91.60
2018-11-14T18:25:08.978Z,91.10
2018-11-14T18:27:37.423Z,90.80
2018-11-14T18:30:09.069Z,90.80
2018-11-14T18:32:37.886Z,90.80
2018-11-14T18:35:08.934Z,91.20
2018-11-14T18:37:37.437Z,90.80
2018-11-14T18:40:07.841Z,90.80
2018-11-14T18:42:36.267Z,90.90
2018-11-14T18:45:05.937Z,91.10
2018-11-14T18:47:34.396Z,90.70
2018-11-14T18:50:02.864Z,91.30
2018-11-14T18:52:31.274Z,91.80
2018-11-14T18:54:59.945Z,91.50
2018-11-14T18:57:28.445Z,91.50
2018-11-14T18:59:56.987Z,90.80
2018-11-14T19:02:25.441Z,90.80
2018-11-14T19:04:54.029Z,90.60
2018-11-14T19:07:22.489Z,91.10
2018-11-14T19:09:50.890Z,91.00
2018-11-14T19:12:19.286Z,91.00
2018-11-14T19:14:47.645Z,91.30
2018-11-14T19:17:16.190Z,91.60
2018-11-14T19:19:44.625Z,91.60
2018-11-14T19:22:13.143Z,91.50
2018-11-14T19:24:41.651Z,91.70
2018-11-14T19:27:10.258Z,91.50
2018-11-14T19:29:38.700Z,91.30
2018-11-14T19:32:07.634Z,91.40
2018-11-14T19:34:36.224Z,91.60
2018-11-14T19:37:04.687Z,91.60
2018-11-14T19:39:33.214Z,91.80
2018-11-14T19:42:01.681Z,92.10
2018-11-14T19:44:30.156Z,92.10
2018-11-14T19:46:58.794Z,92.40
2018-11-14T19:49:27.241Z,92.40
2018-11-14T19:51:55.882Z,92.80
2018-11-14T19:54:24.274Z,92.70
2018-11-14T19:56:52.741Z,92.70
2018-11-14T19:59:21.207Z,92.70
2018-11-14T20:01:49.799Z,92.90
2018-11-14T20:04:18.314Z,93.00
2018-11-14T20:06:46.689Z,92.80
2018-11-14T20:09:15.076Z,92.80
2018-11-14T20:11:43.573Z,92.80
2018-11-14T20:14:12.021Z,92.60
2018-11-14T20:16:40.423Z,93.00
2018-11-14T20:19:08.880Z,92.80
2018-11-14T20:21:37.371Z,92.70
2018-11-14T20:24:06.182Z,92.80
2018-11-14T20:26:34.567Z,92.80
2018-11-14T20:29:03.110Z,93.00
2018-11-14T20:31:31.578Z,93.00
2018-11-14T20:34:00.198Z,92.80
2018-11-14T20:36:28.828Z,92.50
2018-11-14T20:38:57.257Z,93.00
2018-11-14T20:41:25.991Z,92.90
2018-11-14T20:43:54.405Z,92.80
2018-11-14T20:46:22.844Z,92.60
2018-11-14T20:48:51.291Z,92.80
2018-11-14T20:51:19.704Z,92.60
2018-11-14T20:53:48.166Z,92.60
2018-11-14T20:56:16.654Z,92.70
2018-11-14T20:58:45.233Z,93.10
2018-11-14T21:01:13.765Z,93.00
2018-11-14T21:03:42.202Z,93.10
2018-11-14T21:06:10.677Z,93.00
2018-11-14T21:08:39.062Z,92.50
2018-11-14T21:11:07.440Z,92.60
2018-11-14T21:13:35.905Z,92.70
2018-11-14T21:16:04.710Z,92.10
2018-11-14T21:18:33.071Z,92.20
2018-11-14T21:21:01.517Z,92.50
2018-11-14T21:23:29.916Z,92.20
2018-11-14T21:25:58.407Z,92.30
2018-11-14T21:28:26.908Z,92.20
2018-11-14T21:30:55.376Z,92.20
2018-11-14T21:33:23.825Z,92.10
2018-11-14T21:35:52.222Z,92.40
2018-11-14T21:38:20.734Z,92.70
2018-11-14T21:40:49.330Z,92.80
2018-11-14T21:43:18.139Z,92.60
2018-11-14T21:45:46.775Z,92.20
2018-11-14T21:48:17.038Z,92.20
2018-11-14T21:50:46.005Z,92.10
2018-11-14T21:53:14.511Z,92.20
2018-11-14T21:55:42.988Z,92.30
2018-11-14T21:58:11.362Z,92.00
2018-11-14T22:00:40.690Z,92.20
2018-11-14T22:03:09.852Z,92.40
2018-11-14T22:05:38.436Z,92.70
2018-11-14T22:08:07.181Z,93.30
2018-11-14T22:10:35.616Z,92.80
2018-11-14T22:13:04.081Z,92.80
2018-11-14T22:15:32.710Z,92.80
2018-11-14T22:18:01.063Z,92.80
2018-11-14T22:20:30.012Z,92.90
2018-11-14T22:22:58.488Z,92.90
2018-11-14T22:25:28.048Z,92.80
2018-11-14T22:27:56.577Z,92.70
2018-11-14T22:30:29.965Z,92.70
2018-11-14T22:32:58.437Z,92.70
2018-11-14T22:35:27.868Z,92.80
2018-11-14T22:37:56.435Z,92.90
2018-11-14T22:40:26.114Z,92.40
2018-11-14T22:42:54.611Z,92.50
2018-11-14T22:45:31.796Z,92.20
2018-11-14T22:48:00.634Z,92.40
2018-11-14T22:50:29.090Z,92.70
2018-11-14T22:52:57.907Z,93.00
2018-11-14T22:55:26.811Z,93.10
2018-11-14T22:57:55.699Z,93.30
2018-11-14T23:00:32.043Z,93.50
2018-11-14T23:03:01.878Z,93.10
2018-11-14T23:05:30.322Z,92.60
2018-11-14T23:07:59.378Z,92.70
2018-11-14T23:10:28.115Z,92.50
2018-11-14T23:12:56.537Z,93.00
2018-11-14T23:15:25.153Z,92.60
2018-11-14T23:17:53.800Z,92.90
2018-11-14T23:20:22.334Z,92.40
2018-11-14T23:22:51.371Z,92.30
2018-11-14T23:25:20.250Z,92.10
2018-11-14T23:27:49.863Z,92.10
2018-11-14T23:30:19.389Z,92.30
2018-11-14T23:32:48.999Z,92.20
2018-11-14T23:35:18.715Z,92.30
2018-11-14T23:37:48.690Z,92.20
2018-11-14T23:40:17.296Z,92.50
2018-11-14T23:42:46.214Z,92.60
2018-11-14T23:48:21.103Z,92.10
2018-11-14T23:50:49.557Z,92.40
2018-11-14T23:53:17.987Z,92.40
2018-11-14T23:56:13.440Z,92.40
2018-11-14T23:58:44.869Z,92.50
